Time;durP1;ratioP1;P1;durP2;ratioP2;P2;SDS_P1;SDS_P2;PMS_P1;PMS_P2;Temp;Humidity;BMP_temperature;BMP_pressure;BME280_temperature;BME280_humidity;BME280_pressure;Samples;Min_cycle;Max_cycle;Signal;HPM_P1;HPM_P2
2021/04/20 00:02:01;;;;;;;1999.90;999.90;;;9.00;99.90;;;;;;5084905;28;20051;-90
2021/04/20 00:04:28;;;;;;;1999.90;999.90;;;8.90;99.90;;;;;;5088349;28;20071;-91
2021/04/20 00:06:55;;;;;;;1999.90;999.90;;;8.90;99.90;;;;;;5090092;28;20063;-91
2021/04/20 00:09:22;;;;;;;1999.90;999.90;;;8.90;99.90;;;;;;5080072;28;20052;-90
2021/04/20 00:11:49;;;;;;;1999.90;999.90;;;8.90;99.90;;;;;;5083721;28;20045;-91
2021/04/20 00:14:16;;;;;;;1999.90;999.90;;;8.80;99.90;;;;;;5092845;28;20132;-91
2021/04/20 00:16:44;;;;;;;1999.90;999.90;;;8.80;99.90;;;;;;5093032;28;20445;-91
2021/04/20 00:19:12;;;;;;;1999.90;999.90;;;8.80;99.90;;;;;;5086521;28;20079;-90
2021/04/20 00:21:39;;;;;;;1999.90;999.90;;;8.70;99.90;;;;;;5092945;28;20130;-90
2021/04/20 00:24:07;;;;;;;1999.90;999.90;;;8.70;99.90;;;;;;5093425;28;20047;-91
2021/04/20 00:26:34;;;;;;;1999.90;999.90;;;8.70;99.90;;;;;;5090950;28;20477;-90
2021/04/20 00:29:01;;;;;;;1999.90;999.90;;;8.70;99.90;;;;;;5093180;28;20136;-91
2021/04/20 00:31:28;;;;;;;1999.90;999.90;;;8.60;99.90;;;;;;5093225;28;20106;-90
2021/04/20 00:33:56;;;;;;;1999.90;999.90;;;8.60;99.90;;;;;;5090112;28;20075;-90
2021/04/20 00:36:23;;;;;;;1999.90;999.90;;;8.60;99.90;;;;;;5097693;28;20051;-90
2021/04/20 00:38:51;;;;;;;1999.90;999.90;;;8.60;99.90;;;;;;5092810;28;20098;-90
2021/04/20 00:41:17;;;;;;;1999.90;999.90;;;8.50;99.90;;;;;;5090493;28;20052;-91
2021/04/20 00:43:47;;;;;;;1999.90;999.90;;;8.50;99.90;;;;;;5093156;28;20052;-90
2021/04/20 00:46:16;;;;;;;1999.90;999.90;;;8.40;99.90;;;;;;5091372;28;20044;-91
2021/04/20 00:48:43;;;;;;;1999.90;999.90;;;8.50;99.90;;;;;;5083555;28;20138;-90
2021/04/20 00:51:12;;;;;;;1999.90;999.90;;;8.40;99.90;;;;;;5086685;28;20087;-90
2021/04/20 00:53:40;;;;;;;1999.90;999.90;;;8.40;99.90;;;;;;5093632;28;20143;-90
2021/04/20 00:56:07;;;;;;;1999.90;999.90;;;8.40;99.90;;;;;;5091498;28;20076;-90
2021/04/20 00:58:34;;;;;;;1999.90;999.90;;;8.30;99.90;;;;;;5097790;28;20059;-90
2021/04/20 01:01:04;;;;;;;1999.90;999.90;;;8.30;99.90;;;;;;5093443;28;20113;-90
2021/04/20 01:03:32;;;;;;;1999.90;999.90;;;8.30;99.90;;;;;;5092810;28;20047;-90
2021/04/20 01:06:00;;;;;;;1999.90;999.90;;;8.20;99.90;;;;;;5093191;28;20072;-91
2021/04/20 01:08:29;;;;;;;1999.90;999.90;;;8.20;99.90;;;;;;5081207;28;20056;-90
2021/04/20 01:10:58;;;;;;;1999.90;999.90;;;8.20;99.90;;;;;;5089833;28;20041;-91
2021/04/20 01:13:27;;;;;;;1999.90;999.90;;;8.20;99.90;;;;;;5085068;28;20436;-90
2021/04/20 01:15:55;;;;;;;1999.90;999.90;;;8.10;99.90;;;;;;5075865;28;20083;-90
2021/04/20 01:18:25;;;;;;;1999.90;999.90;;;8.10;99.90;;;;;;5080617;28;20119;-90
2021/04/20 01:20:54;;;;;;;1999.90;999.90;;;8.10;99.90;;;;;;5092328;28;20044;-90
2021/04/20 01:23:41;;;;;;;1999.90;999.90;;;8.10;99.90;;;;;;5089575;28;20047;-90
2021/04/20 01:26:10;;;;;;;1999.90;999.90;;;8.00;99.90;;;;;;5092814;28;20044;-91
2021/04/20 01:28:38;;;;;;;1999.90;999.90;;;8.00;99.90;;;;;;5096557;28;20079;-90
2021/04/20 01:31:06;;;;;;;1999.90;999.90;;;8.00;99.90;;;;;;5093579;28;20056;-90
2021/04/20 01:33:33;;;;;;;1999.90;999.90;;;8.00;99.90;;;;;;5096278;28;20056;-90
2021/04/20 01:36:00;;;;;;;1999.90;999.90;;;7.90;99.90;;;;;;5093864;28;20056;-90
2021/04/20 01:38:30;;;;;;;1999.90;999.90;;;8.00;99.90;;;;;;5093768;28;20067;-90
2021/04/20 01:40:58;;;;;;;1999.90;999.90;;;7.90;99.90;;;;;;5090975;28;20075;-90
2021/04/20 01:43:26;;;;;;;1999.90;999.90;;;7.90;99.90;;;;;;5094074;28;20048;-90
2021/04/20 01:45:54;;;;;;;1999.90;999.90;;;7.80;99.90;;;;;;5091112;28;20466;-90
2021/04/20 01:48:21;;;;;;;1999.90;999.90;;;7.80;99.90;;;;;;5093621;28;20078;-90
2021/04/20 01:50:48;;;;;;;1999.90;999.90;;;7.80;99.90;;;;;;5091462;28;20452;-90
2021/04/20 01:53:15;;;;;;;1999.90;999.90;;;7.70;99.90;;;;;;5091695;28;20105;-90
2021/04/20 01:55:42;;;;;;;1999.90;999.90;;;7.70;99.90;;;;;;5095747;28;20048;-90
2021/04/20 01:58:10;;;;;;;1999.90;999.90;;;7.70;99.90;;;;;;5093242;28;20067;-90
2021/04/20 02:00:39;;;;;;;1999.90;999.90;;;7.60;99.90;;;;;;5090363;28;20043;-90
2021/04/20 02:03:08;;;;;;;1999.90;999.90;;;7.60;99.90;;;;;;5095347;28;20211;-90
2021/04/20 02:05:36;;;;;;;1999.90;999.90;;;7.60;99.90;;;;;;5095534;28;20098;-90
2021/04/20 02:08:04;;;;;;;1999.90;999.90;;;7.60;99.90;;;;;;5088356;28;20385;-90
2021/04/20 02:10:31;;;;;;;1999.90;999.90;;;7.60;99.90;;;;;;5088596;28;20051;-90
2021/04/20 02:12:58;;;;;;;1999.90;999.90;;;7.50;99.90;;;;;;5095719;28;20136;-90
2021/04/20 02:15:26;;;;;;;1999.90;999.90;;;7.50;99.90;;;;;;5087147;28;20497;-90
2021/04/20 02:17:54;;;;;;;1999.90;999.90;;;7.50;99.90;;;;;;5090793;28;20450;-90
2021/04/20 02:20:22;;;;;;;1999.90;999.90;;;7.50;99.90;;;;;;5090302;28;20075;-90
2021/04/20 02:22:49;;;;;;;1999.90;999.90;;;7.50;99.90;;;;;;5098721;28;20101;-90
2021/04/20 02:25:18;;;;;;;1999.90;999.90;;;7.40;99.90;;;;;;5095209;28;20056;-90
2021/04/20 02:27:48;;;;;;;1999.90;999.90;;;7.40;99.90;;;;;;5090719;28;20757;-90
2021/04/20 02:30:16;;;;;;;1999.90;999.90;;;7.40;99.90;;;;;;5095905;28;20079;-90
2021/04/20 02:32:43;;;;;;;1999.90;999.90;;;7.40;99.90;;;;;;5095265;28;20546;-90
2021/04/20 02:35:15;;;;;;;1999.90;999.90;;;7.30;99.90;;;;;;5092321;28;20059;-90
2021/04/20 02:37:43;;;;;;;1999.90;999.90;;;7.40;99.90;;;;;;5097396;28;20530;-90
2021/04/20 02:40:17;;;;;;;1999.90;999.90;;;7.30;99.90;;;;;;5090428;28;20051;-90
2021/04/20 02:42:44;;;;;;;1999.90;999.90;;;7.30;99.90;;;;;;5095185;28;20048;-91
2021/04/20 02:45:12;;;;;;;1999.90;999.90;;;7.30;99.90;;;;;;5095577;28;20052;-90
2021/04/20 02:47:39;;;;;;;1999.90;999.90;;;7.20;99.90;;;;;;5094547;28;20097;-90
2021/04/20 02:50:08;;;;;;;1999.90;999.90;;;7.30;99.90;;;;;;5079862;28;20084;-91
2021/04/20 02:52:37;;;;;;;1999.90;999.90;;;7.20;99.90;;;;;;5083705;28;20078;-90
2021/04/20 02:55:07;;;;;;;1999.90;999.90;;;7.20;99.90;;;;;;5094164;28;20101;-90
2021/04/20 02:57:36;;;;;;;1999.90;999.90;;;7.20;99.90;;;;;;5094773;28;20044;-90
2021/04/20 03:00:05;;;;;;;1999.90;999.90;;;7.20;99.90;;;;;;5091994;28;20072;-90
2021/04/20 03:02:34;;;;;;;1999.90;999.90;;;7.20;99.90;;;;;;5091719;28;20144;-90
2021/04/20 03:05:02;;;;;;;1999.90;999.90;;;7.10;99.90;;;;;;5091692;28;20051;-90
2021/04/20 03:07:29;;;;;;;1999.90;999.90;;;7.10;99.90;;;;;;5076495;28;20069;-90
2021/04/20 03:09:57;;;;;;;1999.90;999.90;;;7.10;99.90;;;;;;5092054;28;20084;-90
2021/04/20 03:12:24;;;;;;;1999.90;999.90;;;7.10;99.90;;;;;;5091880;28;20091;-90
2021/04/20 03:14:51;;;;;;;1999.90;999.90;;;7.10;99.90;;;;;;5082743;28;20128;-90
2021/04/20 03:17:19;;;;;;;1999.90;999.90;;;7.10;99.90;;;;;;5087695;28;20466;-90
2021/04/20 03:20:06;;;;;;;1999.90;999.90;;;7.00;99.90;;;;;;5094560;28;20808;-90
2021/04/20 03:22:34;;;;;;;1999.90;999.90;;;7.00;99.90;;;;;;5093449;28;20072;-90
2021/04/20 03:25:18;;;;;;;1999.90;999.90;;;7.00;99.90;;;;;;5085248;28;20053;-90
2021/04/20 03:27:47;;;;;;;1999.90;999.90;;;7.00;99.90;;;;;;5091373;28;20044;-90
2021/04/20 03:30:16;;;;;;;1999.90;999.90;;;6.90;99.90;;;;;;5094241;28;20456;-90
2021/04/20 03:32:51;;;;;;;1999.90;999.90;;;6.90;99.90;;;;;;5094035;28;20060;-90
2021/04/20 03:35:22;;;;;;;1999.90;999.90;;;6.90;99.90;;;;;;5093952;28;20063;-90
2021/04/20 03:37:55;;;;;;;1999.90;999.90;;;6.90;99.90;;;;;;5093285;28;20052;-90
2021/04/20 03:40:25;;;;;;;1999.90;999.90;;;6.90;99.90;;;;;;5090192;28;20154;-91
2021/04/20 03:42:56;;;;;;;1999.90;999.90;;;6.80;99.90;;;;;;5093242;28;20717;-90
2021/04/20 03:45:26;;;;;;;1999.90;999.90;;;6.80;99.90;;;;;;5094044;28;20394;-90
2021/04/20 03:47:57;;;;;;;1999.90;999.90;;;6.80;99.90;;;;;;5092960;28;20134;-91
2021/04/20 03:50:27;;;;;;;1999.90;999.90;;;6.80;99.90;;;;;;5086291;28;20055;-91
2021/04/20 03:52:57;;;;;;;1999.90;999.90;;;6.70;99.90;;;;;;5087688;28;20059;-91
2021/04/20 03:55:29;;;;;;;1999.90;999.90;;;6.70;99.90;;;;;;5082291;28;20044;-90
2021/04/20 03:57:57;;;;;;;1999.90;999.90;;;6.70;99.90;;;;;;5077981;28;20713;-90
2021/04/20 04:00:25;;;;;;;1999.90;999.90;;;6.60;99.90;;;;;;5088818;28;20487;-90
2021/04/20 04:02:55;;;;;;;1999.90;999.90;;;6.70;99.90;;;;;;5094516;28;20143;-90
2021/04/20 04:05:27;;;;;;;1999.90;999.90;;;6.60;99.90;;;;;;5094908;28;20102;-90
2021/04/20 04:07:56;;;;;;;1999.90;999.90;;;6.60;99.90;;;;;;5088711;28;20051;-91
2021/04/20 04:10:25;;;;;;;1999.90;999.90;;;6.50;99.90;;;;;;5096195;28;20110;-91
2021/04/20 04:12:54;;;;;;;1999.90;999.90;;;6.60;99.90;;;;;;5088725;28;20044;-90
2021/04/20 04:15:22;;;;;;;1999.90;999.90;;;6.50;99.90;;;;;;5083810;28;20416;-90
2021/04/20 04:17:51;;;;;;;1999.90;999.90;;;6.50;99.90;;;;;;5093863;28;20095;-90
2021/04/20 04:20:19;;;;;;;1999.90;999.90;;;6.50;99.90;;;;;;5093762;28;20054;-90
2021/04/20 04:22:53;;;;;;;1999.90;999.90;;;6.50;99.90;;;;;;5089875;28;20048;-90
2021/04/20 04:25:23;;;;;;;1999.90;999.90;;;6.50;99.90;;;;;;5093688;28;20094;-90
2021/04/20 04:27:54;;;;;;;1999.90;999.90;;;6.40;99.90;;;;;;5093012;28;20074;-90
2021/04/20 04:30:22;;;;;;;1999.90;999.90;;;6.40;99.90;;;;;;5093426;28;20047;-90
2021/04/20 04:32:51;;;;;;;1999.90;999.90;;;6.40;99.90;;;;;;5093309;28;20127;-90
2021/04/20 04:35:19;;;;;;;1999.90;999.90;;;6.30;99.90;;;;;;5085379;28;20075;-90
2021/04/20 04:37:48;;;;;;;1999.90;999.90;;;6.30;99.90;;;;;;5092675;28;20131;-90
2021/04/20 04:40:17;;;;;;;1999.90;999.90;;;6.30;99.90;;;;;;5093307;28;20109;-90
2021/04/20 04:42:45;;;;;;;1999.90;999.90;;;6.30;99.90;;;;;;5084720;28;20052;-90
2021/04/20 04:45:14;;;;;;;1999.90;999.90;;;6.30;99.90;;;;;;5081231;28;20125;-90
2021/04/20 04:47:42;;;;;;;1999.90;999.90;;;6.20;99.90;;;;;;5092984;28;20048;-90
2021/04/20 04:50:10;;;;;;;1999.90;999.90;;;6.30;99.90;;;;;;5079607;28;20055;-90
2021/04/20 04:52:40;;;;;;;1999.90;999.90;;;6.30;99.90;;;;;;5081158;28;20052;-90
2021/04/20 04:55:09;;;;;;;1999.90;999.90;;;6.20;99.90;;;;;;5089785;28;20056;-90
2021/04/20 04:57:36;;;;;;;1999.90;999.90;;;6.20;99.90;;;;;;5084115;28;20135;-90
2021/04/20 05:00:06;;;;;;;1999.90;999.90;;;6.20;99.90;;;;;;5092712;28;20082;-90
2021/04/20 05:02:35;;;;;;;1999.90;999.90;;;6.20;99.90;;;;;;5085008;28;20070;-90
2021/04/20 05:05:07;;;;;;;1999.90;999.90;;;6.20;99.90;;;;;;5085699;28;20063;-90
2021/04/20 05:07:35;;;;;;;1999.90;999.90;;;6.20;99.90;;;;;;5092143;28;20067;-90
2021/04/20 05:10:02;;;;;;;1999.90;999.90;;;6.20;99.90;;;;;;5089107;28;20511;-90
2021/04/20 05:12:31;;;;;;;1999.90;999.90;;;6.20;99.90;;;;;;5095193;28;20475;-90
2021/04/20 05:15:05;;;;;;;1999.90;999.90;;;6.20;99.90;;;;;;5095391;28;20048;-91
2021/04/20 05:17:36;;;;;;;1999.90;999.90;;;6.20;99.90;;;;;;5094992;28;20048;-91
2021/04/20 05:20:06;;;;;;;1999.90;999.90;;;6.20;99.90;;;;;;5096206;28;20082;-91
2021/04/20 05:22:34;;;;;;;1999.90;999.90;;;6.20;99.90;;;;;;5085699;28;20056;-91
2021/04/20 05:25:05;;;;;;;1999.90;999.90;;;6.20;99.90;;;;;;5091259;28;20534;-91
2021/04/20 05:27:32;;;;;;;1999.90;999.90;;;6.30;99.90;;;;;;5091889;28;20044;-91
2021/04/20 05:29:59;;;;;;;1999.90;999.90;;;6.20;99.90;;;;;;5092159;28;20134;-91
2021/04/20 05:32:26;;;;;;;1999.90;999.90;;;6.30;99.90;;;;;;5096287;28;20075;-91
2021/04/20 05:34:59;;;;;;;1999.90;999.90;;;6.30;99.90;;;;;;5095882;28;20089;-91
2021/04/20 05:37:36;;;;;;;1999.90;999.90;;;6.30;99.90;;;;;;5096466;28;20048;-91
2021/04/20 05:40:06;;;;;;;1999.90;999.90;;;6.30;99.90;;;;;;5097455;28;20086;-95
2021/04/20 05:42:33;;;;;;;1999.90;999.90;;;6.30;99.90;;;;;;5098169;28;20136;-94
2021/04/20 05:45:00;;;;;;;1999.90;999.90;;;6.40;99.90;;;;;;5097685;28;20071;-94
2021/04/20 05:47:27;;;;;;;1999.90;999.90;;;6.40;99.90;;;;;;5097612;28;20048;-94
2021/04/20 05:50:00;;;;;;;1999.90;999.90;;;6.40;99.90;;;;;;5097513;28;20063;-94
2021/04/20 05:52:28;;;;;;;1999.90;999.90;;;6.50;99.90;;;;;;5097958;28;20056;-94
2021/04/20 05:54:56;;;;;;;1999.90;999.90;;;6.50;99.90;;;;;;5097923;28;20463;-94
2021/04/20 05:57:24;;;;;;;1999.90;999.90;;;6.50;99.90;;;;;;5089709;28;20079;-92
2021/04/20 05:59:53;;;;;;;1999.90;999.90;;;6.60;99.90;;;;;;5091840;28;20121;-94
2021/04/20 06:02:24;;;;;;;1999.90;999.90;;;6.60;99.90;;;;;;5098879;28;20044;-94
2021/04/20 06:04:54;;;;;;;1999.90;999.90;;;6.70;99.90;;;;;;5091716;28;20048;-94
2021/04/20 06:07:24;;;;;;;1999.90;999.90;;;6.80;99.90;;;;;;5096136;28;20127;-94
2021/04/20 06:09:54;;;;;;;1999.90;999.90;;;6.90;99.90;;;;;;5098585;28;20071;-94
2021/04/20 06:12:22;;;;;;;1999.90;999.90;;;7.00;99.90;;;;;;5099431;28;20074;-93
2021/04/20 06:14:50;;;;;;;1999.90;999.90;;;7.00;99.90;;;;;;5100077;28;20052;-94
2021/04/20 06:17:18;;;;;;;1999.90;999.90;;;7.20;99.90;;;;;;5100035;28;20070;-95
2021/04/20 06:19:45;;;;;;;1999.90;999.90;;;7.20;99.90;;;;;;5102216;28;20053;-93
2021/04/20 06:22:16;;;;;;;1999.90;999.90;;;7.30;99.90;;;;;;5115918;28;20059;-94
2021/04/20 06:24:45;;;;;;;1999.90;999.90;;;7.40;99.90;;;;;;5115160;28;20044;-94
2021/04/20 06:27:14;;;;;;;1999.90;999.90;;;7.50;99.90;;;;;;5101595;28;20044;-94
2021/04/20 06:29:43;;;;;;;1999.90;999.90;;;7.60;99.90;;;;;;5097306;28;20052;-94
2021/04/20 06:32:12;;;;;;;1999.90;999.90;;;7.70;99.90;;;;;;5097326;28;20052;-94
2021/04/20 06:34:39;;;;;;;1999.90;999.90;;;7.80;99.90;;;;;;5096900;28;20075;-94
2021/04/20 06:37:09;;;;;;;1999.90;999.90;;;7.90;99.90;;;;;;5096786;28;20044;-95
2021/04/20 06:39:38;;;;;;;1999.90;999.90;;;8.00;99.90;;;;;;5098838;28;20437;-96
2021/04/20 06:42:12;;;;;;;1999.90;999.90;;;8.10;99.90;;;;;;5098716;28;20486;-96
2021/04/20 06:44:50;;;;;;;1999.90;999.90;;;8.20;99.90;;;;;;5099320;28;20387;-96
2021/04/20 06:47:23;;;;;;;1999.90;999.90;;;8.30;99.90;;;;;;5098810;28;20547;-96
2021/04/20 06:49:55;;;;;;;1999.90;999.90;;;8.40;99.90;;;;;;5098623;28;20048;-96
2021/04/20 06:52:30;;;;;;;1999.90;999.90;;;8.50;99.90;;;;;;5097986;28;20059;-96
2021/04/20 06:55:04;;;;;;;1999.90;999.90;;;8.70;99.90;;;;;;5099320;28;20052;-96
2021/04/20 06:57:40;;;;;;;1999.90;999.90;;;8.80;99.90;;;;;;5099473;28;20044;-95
2021/04/20 07:00:14;;;;;;;1999.90;999.90;;;8.90;99.90;;;;;;5099677;28;20071;-96
2021/04/20 07:02:57;;;;;;;1999.90;999.90;;;9.00;99.90;;;;;;5099466;28;20078;-96
2021/04/20 07:05:35;;;;;;;1999.90;999.90;;;9.10;99.90;;;;;;5099344;28;20048;-96
2021/04/20 07:08:15;;;;;;;1999.90;999.90;;;9.20;99.90;;;;;;5099725;28;20052;-96
2021/04/20 07:10:45;;;;;;;1999.90;999.90;;;9.40;99.90;;;;;;5099865;28;20052;-96
2021/04/20 07:13:24;;;;;;;1999.90;999.90;;;9.40;99.90;;;;;;5099036;28;20052;-96
2021/04/20 07:15:56;;;;;;;1999.90;999.90;;;9.60;99.90;;;;;;5100003;28;20074;-96
2021/04/20 07:18:56;;;;;;;1999.90;999.90;;;9.70;99.90;;;;;;5099772;28;20398;-96
2021/04/20 07:21:45;;;;;;;1999.90;999.90;;;9.90;99.90;;;;;;5099519;28;20056;-96
2021/04/20 07:24:18;;;;;;;1999.90;999.90;;;9.90;99.90;;;;;;5100591;28;20135;-96
2021/04/20 07:27:15;;;;;;;1999.90;999.90;;;10.00;99.90;;;;;;5101284;28;20052;-96
2021/04/20 07:30:08;;;;;;;1999.90;999.90;;;10.20;99.90;;;;;;5100066;28;20102;-96
2021/04/20 07:33:03;;;;;;;1999.90;999.90;;;10.30;99.90;;;;;;5101092;28;20059;-96
2021/04/20 07:35:41;;;;;;;1999.90;999.90;;;10.40;99.90;;;;;;5099936;28;20048;-96
2021/04/20 07:38:23;;;;;;;1999.90;999.90;;;10.50;99.90;;;;;;5101350;28;20048;-96
2021/04/20 07:41:06;;;;;;;1999.90;999.90;;;10.50;99.90;;;;;;5101698;28;20060;-96
2021/04/20 07:44:06;;;;;;;1999.90;999.90;;;10.60;99.90;;;;;;5102717;28;20200;-96
2021/04/20 07:46:56;;;;;;;1999.90;999.90;;;10.70;99.90;;;;;;5099838;28;20063;-96
2021/04/20 07:49:45;;;;;;;1999.90;999.90;;;10.80;99.90;;;;;;5106497;28;20059;-96
2021/04/20 07:52:28;;;;;;;1999.90;999.90;;;10.80;99.90;;;;;;5111696;28;20121;-96
2021/04/20 07:55:16;;;;;;;1999.90;999.90;;;10.90;99.90;;;;;;5111675;28;20070;-96
2021/04/20 07:57:48;;;;;;;1999.90;999.90;;;11.00;99.90;;;;;;5109526;28;20048;-96
2021/04/20 08:00:23;;;;;;;1999.90;999.90;;;11.00;99.90;;;;;;5109447;28;20052;-96
2021/04/20 08:02:57;;;;;;;1999.90;999.90;;;11.10;99.90;;;;;;5108304;28;20079;-96
2021/04/20 08:06:02;;;;;;;1999.90;999.90;;;11.20;99.90;;;;;;5108148;28;20052;-96
2021/04/20 08:08:49;;;;;;;1999.90;999.90;;;11.20;99.90;;;;;;5118304;28;20052;-96
2021/04/20 08:11:26;;;;;;;1999.90;999.90;;;11.30;99.90;;;;;;5111868;28;20047;-96
2021/04/20 08:14:28;;;;;;;1999.90;999.90;;;11.40;99.90;;;;;;5107999;28;20048;-96
2021/04/20 08:20:03;;;;;;;1999.90;999.90;;;11.80;99.90;;;;;;5109737;28;20056;-96
2021/04/20 08:22:54;;;;;;;1999.90;999.90;;;11.90;99.90;;;;;;5110552;28;20052;-96
2021/04/20 08:25:46;;;;;;;1999.90;999.90;;;12.10;99.90;;;;;;5107175;28;20387;-96
2021/04/20 08:28:46;;;;;;;1999.90;999.90;;;12.40;99.90;;;;;;5104244;28;20040;-96
2021/04/20 08:31:22;;;;;;;1999.90;999.90;;;12.60;99.90;;;;;;5100008;28;20048;-96
2021/04/20 08:34:27;;;;;;;1999.90;999.90;;;12.80;99.90;;;;;;5098961;28;20055;-96
2021/04/20 08:37:36;;;;;;;1999.90;999.90;;;12.80;99.90;;;;;;5102992;28;20055;-96
2021/04/20 08:40:27;;;;;;;1999.90;999.90;;;13.00;99.90;;;;;;5104463;28;20055;-96
2021/04/20 08:43:26;;;;;;;1999.90;999.90;;;13.20;99.90;;;;;;5104115;28;20048;-96
2021/04/20 08:46:07;;;;;;;1999.90;999.90;;;13.30;99.90;;;;;;5103854;28;20048;-96
2021/04/20 08:48:58;;;;;;;1999.90;999.90;;;13.30;99.90;;;;;;5104063;28;20058;-96
2021/04/20 08:51:54;;;;;;;1999.90;999.90;;;13.40;99.90;;;;;;5104802;28;20071;-96
2021/04/20 08:55:17;;;;;;;1999.90;999.90;;;13.50;99.90;;;;;;5096437;28;20056;-96
2021/04/20 08:57:53;;;;;;;;;;;13.70;99.90;;;;;;5112411;28;20040;-96
2021/04/20 09:00:57;;;;;;;1999.90;999.90;;;13.70;99.90;;;;;;5121227;28;19903;-96
2021/04/20 09:11:12;;;;;;;1999.90;999.90;;;14.00;99.90;;;;;;5042605;28;20036;-96
2021/04/20 09:14:25;;;;;;;1999.90;999.90;;;14.20;99.90;;;;;;5042741;28;20072;-96
2021/04/20 09:17:06;;;;;;;1999.90;999.90;;;14.40;99.90;;;;;;5042855;28;20049;-96
2021/04/20 09:20:10;;;;;;;;;;;;;;;;;;;;;
2021/04/20 09:22:58;;;;;;;1999.90;999.90;;;14.60;99.90;;;;;;5043827;28;20144;-96
2021/04/20 09:25:57;;;;;;;1999.90;999.90;;;14.50;99.90;;;;;;5101875;28;20055;-96
2021/04/20 09:29:08;;;;;;;1999.90;999.90;;;14.60;99.90;;;;;;5102826;28;20048;-96
2021/04/20 09:35:11;;;;;;;1999.90;999.90;;;14.80;99.50;;;;;;5102138;28;20084;-96
2021/04/20 09:41:21;;;;;;;1999.90;999.90;;;15.10;98.90;;;;;;5106729;28;20056;-96
2021/04/20 09:44:19;;;;;;;1999.90;999.90;;;15.10;97.90;;;;;;5108085;28;20066;-96
2021/04/20 09:47:26;;;;;;;1999.90;999.90;;;15.30;98.60;;;;;;5107803;28;20056;-96
2021/04/20 09:50:22;;;;;;;1999.90;999.90;;;15.40;97.60;;;;;;5106764;28;20051;-96
2021/04/20 10:00:29;;;;;;;1999.90;999.90;;;16.10;96.30;;;;;;5085837;28;19939;-96
2021/04/20 10:07:24;;;;;;;1999.90;999.90;;;16.00;96.80;;;;;;5006969;28;20058;-96
2021/04/20 10:10:15;;;;;;;1999.90;999.90;;;16.10;97.50;;;;;;5008374;28;20050;-96
2021/04/20 10:13:21;;;;;;;1999.90;999.90;;;16.20;96.10;;;;;;5008901;28;20081;-96
2021/04/20 10:16:09;;;;;;;1999.90;999.90;;;16.40;96.90;;;;;;4987663;28;20054;-96
2021/04/20 10:26:21;;;;;;;1999.90;999.90;;;16.90;94.50;;;;;;5002294;28;20065;-96
2021/04/20 10:29:26;;;;;;;1999.90;999.90;;;16.90;95.60;;;;;;5006026;28;20040;-96
2021/04/20 10:32:31;;;;;;;1999.90;999.90;;;17.00;94.60;;;;;;5006865;28;20133;-96
2021/04/20 10:35:24;;;;;;;1999.90;999.90;;;17.00;93.60;;;;;;4999665;28;20114;-96
2021/04/20 10:46:32;;;;;;;1999.90;999.90;;;17.30;93.20;;;;;;4947817;29;20038;-96
2021/04/20 10:49:31;;;;;;;1999.90;999.90;;;17.50;92.90;;;;;;5040201;28;20053;-96
2021/04/20 10:59:13;;;;;;;1999.90;999.90;;;17.80;91.80;;;;;;5036981;28;20052;-96
2021/04/20 11:02:03;;;;;;;1999.90;999.90;;;17.90;90.90;;;;;;5020334;28;20077;-96
2021/04/20 11:04:59;;;;;;;1999.90;999.90;;;17.90;91.40;;;;;;5047687;28;20053;-96
2021/04/20 11:08:16;;;;;;;1999.90;999.90;;;18.10;88.70;;;;;;5084697;28;20051;-96
2021/04/20 11:16:53;;;;;;;1999.90;999.90;;;18.00;88.80;;;;;;5085786;28;20403;-96
2021/04/20 11:19:55;;;;;;;1999.90;999.90;;;17.90;87.90;;;;;;5087567;28;20075;-96
2021/04/20 11:26:23;;;;;;;1999.90;999.90;;;18.00;88.10;;;;;;5084435;28;20051;-96
2021/04/20 11:29:10;;;;;;;1999.90;999.90;;;18.10;90.30;;;;;;5084455;28;20377;-96
2021/04/20 11:32:00;;;;;;;1999.90;999.90;;;18.10;86.40;;;;;;5084599;28;20058;-96
2021/04/20 11:34:33;;;;;;;1999.90;999.90;;;18.20;89.20;;;;;;5084841;28;20124;-96
2021/04/20 11:37:43;;;;;;;1999.90;999.90;;;18.40;89.10;;;;;;5085652;28;20078;-96
2021/04/20 11:41:09;;;;;;;1999.90;999.90;;;18.50;85.40;;;;;;5074508;28;20056;-96
2021/04/20 11:47:26;;;;;;;1999.90;999.90;;;18.50;86.00;;;;;;5083511;28;20052;-96
2021/04/20 11:53:00;;;;;;;1999.90;999.90;;;18.60;86.60;;;;;;5103402;28;20052;-96
2021/04/20 11:59:37;;;;;;;1999.90;999.90;;;18.70;83.50;;;;;;5091344;28;20044;-96
2021/04/20 12:03:09;;;;;;;;;;;;;;;;;;;;;
2021/04/20 12:06:02;;;;;;;1999.90;999.90;;;18.80;82.00;;;;;;5094323;28;20052;-96
2021/04/20 12:08:47;;;;;;;1999.90;999.90;;;18.90;84.00;;;;;;5106184;28;20483;-96
2021/04/20 12:11:16;;;;;;;1999.90;999.90;;;18.90;80.60;;;;;;5104687;28;20055;-96
2021/04/20 12:14:08;;;;;;;1999.90;999.90;;;19.00;82.60;;;;;;5104757;28;20079;-96
2021/04/20 12:17:35;;;;;;;1999.90;999.90;;;19.20;80.50;;;;;;5102688;28;20047;-96
2021/04/20 12:24:13;;;;;;;;;;;;;;;;;;;;;
2021/04/20 12:27:17;;;;;;;1999.90;999.90;;;19.40;77.80;;;;;;5105489;28;20440;-96
2021/04/20 12:33:59;;;;;;;1999.90;999.90;;;19.30;77.30;;;;;;5105284;28;20056;-96
2021/04/20 12:36:55;;;;;;;1999.90;999.90;;;19.20;75.40;;;;;;5105152;28;20101;-96
2021/04/20 12:39:50;;;;;;;;;;;;;;;;;;;;;
2021/04/20 12:46:12;;;;;;;1999.90;999.90;;;19.60;75.40;;;;;;5036468;28;20425;-96
2021/04/20 12:48:53;;;;;;;1999.90;999.90;;;19.60;74.90;;;;;;5108007;28;20118;-96
2021/04/20 12:55:22;;;;;;;1999.90;999.90;;;19.90;77.50;;;;;;5006329;28;20050;-96
2021/04/20 13:05:36;;;;;;;1999.90;999.90;;;20.40;72.80;;;;;;4948905;29;20079;-96
2021/04/20 13:08:51;;;;;;;1999.90;999.90;;;20.40;70.10;;;;;;4946495;29;20058;-96
2021/04/20 13:26:08;;;;;;;1999.90;999.90;;;20.50;67.40;;;;;;4982416;28;20126;-96
2021/04/20 13:52:27;;;;;;;1999.90;999.90;;;19.70;64.70;;;;;;4913774;29;20062;-96
2021/04/20 13:55:32;;;;;;;1999.90;999.90;;;19.70;65.00;;;;;;4965604;28;20138;-96
2021/04/20 14:06:01;;;;;;;1999.90;999.90;;;19.40;62.20;;;;;;4889768;29;20619;-96
2021/04/20 14:12:45;;;;;;;1999.90;999.90;;;19.30;63.10;;;;;;4886516;29;20149;-96
2021/04/20 14:15:15;;;;;;;1999.90;999.90;;;19.10;62.60;;;;;;4890985;29;20060;-96
2021/04/20 14:17:48;;;;;;;1999.90;999.90;;;19.00;62.70;;;;;;4944363;29;20062;-96
2021/04/20 14:20:20;;;;;;;1999.90;999.90;;;19.00;64.10;;;;;;4943171;29;20086;-96
2021/04/20 14:22:54;;;;;;;1999.90;999.90;;;19.00;63.70;;;;;;4945605;29;20152;-96
2021/04/20 14:25:35;;;;;;;1999.90;999.90;;;19.10;63.10;;;;;;4942909;29;20056;-96
2021/04/20 14:28:06;;;;;;;1999.90;999.90;;;19.20;62.50;;;;;;4942598;29;20051;-96
2021/04/20 14:30:37;;;;;;;1999.90;999.90;;;19.30;64.30;;;;;;5044800;28;20048;-96
2021/04/20 14:33:07;;;;;;;1999.90;999.90;;;19.70;63.50;;;;;;5103887;28;20072;-96
2021/04/20 14:35:37;;;;;;;1999.90;999.90;;;19.90;63.80;;;;;;5103178;28;20536;-96
2021/04/20 14:38:05;;;;;;;1999.90;999.90;;;20.00;60.70;;;;;;5101850;28;20085;-96
2021/04/20 14:40:37;;;;;;;1999.90;999.90;;;20.10;59.80;;;;;;5102765;28;20059;-96
2021/04/20 14:43:14;;;;;;;1999.90;999.90;;;20.00;59.70;;;;;;5103008;28;20113;-96
2021/04/20 14:45:56;;;;;;;1999.90;999.90;;;20.00;60.50;;;;;;5101409;28;20144;-96
2021/04/20 14:48:29;;;;;;;1999.90;999.90;;;20.00;60.90;;;;;;5102920;28;20103;-96
2021/04/20 14:51:09;;;;;;;1999.90;999.90;;;20.20;61.00;;;;;;5102729;28;20052;-96
2021/04/20 14:53:44;;;;;;;1999.90;999.90;;;20.30;58.80;;;;;;5102255;28;20066;-96
2021/04/20 14:56:28;;;;;;;1999.90;999.90;;;20.40;59.00;;;;;;5102707;28;20048;-96
2021/04/20 14:59:00;;;;;;;1999.90;999.90;;;20.30;60.20;;;;;;5102225;28;20048;-96
2021/04/20 15:01:30;;;;;;;1999.90;999.90;;;20.40;58.30;;;;;;5100972;28;20123;-96
2021/04/20 15:04:21;;;;;;;1999.90;999.90;;;20.30;57.90;;;;;;5101426;28;20052;-96
2021/04/20 15:07:05;;;;;;;1999.90;999.90;;;20.20;58.90;;;;;;5103078;28;20131;-96
2021/04/20 15:09:40;;;;;;;1999.90;999.90;;;20.20;58.80;;;;;;5105962;28;20069;-96
2021/04/20 15:12:16;;;;;;;1999.90;999.90;;;20.40;60.60;;;;;;5108332;28;20056;-96
2021/04/20 15:14:57;;;;;;;1999.90;999.90;;;20.60;57.50;;;;;;5109809;28;20125;-96
2021/04/20 15:17:48;;;;;;;1999.90;999.90;;;20.50;57.40;;;;;;5118586;28;20052;-95
2021/04/20 15:20:20;;;;;;;1999.90;999.90;;;20.40;57.80;;;;;;5107687;28;20071;-96
2021/04/20 15:23:06;;;;;;;1999.90;999.90;;;20.50;57.80;;;;;;5101154;28;20048;-96
2021/04/20 15:25:51;;;;;;;1999.90;999.90;;;20.70;59.50;;;;;;5103223;28;20048;-96